createdAt,value
2022-11-29T00:01:26.554Z,19.70
2022-11-29T00:03:53.940Z,19.20
2022-11-29T00:06:23.137Z,19.57
2022-11-29T00:08:50.216Z,19.90
2022-11-29T00:11:38.465Z,19.50
2022-11-29T00:14:16.875Z,19.50
2022-11-29T00:16:43.829Z,19.33
2022-11-29T00:19:12.822Z,19.70
2022-11-29T00:21:39.388Z,18.67
2022-11-29T00:24:06.268Z,20.50
2022-11-29T00:26:32.793Z,20.40
2022-11-29T00:28:59.318Z,19.90
2022-11-29T00:31:30.377Z,20.30
2022-11-29T00:33:58.806Z,19.60
2022-11-29T00:36:25.993Z,19.87
2022-11-29T00:38:52.787Z,19.37
2022-11-29T00:41:20.022Z,19.77
2022-11-29T00:43:46.575Z,20.37
2022-11-29T00:46:13.186Z,21.07
2022-11-29T00:48:39.950Z,20.03
2022-11-29T00:51:07.604Z,20.10
2022-11-29T00:53:35.059Z,20.43
2022-11-29T00:56:02.756Z,20.93
2022-11-29T00:58:29.454Z,20.67
2022-11-29T01:00:56.559Z,20.53
2022-11-29T01:03:23.168Z,19.70
2022-11-29T01:05:50.156Z,19.93
2022-11-29T01:08:17.313Z,20.53
2022-11-29T01:10:43.927Z,21.07
2022-11-29T01:13:10.965Z,20.23
2022-11-29T01:15:38.120Z,20.93
2022-11-29T01:18:04.843Z,21.03
2022-11-29T01:20:31.380Z,19.97
2022-11-29T01:22:58.394Z,20.73
2022-11-29T01:25:25.036Z,20.50
2022-11-29T01:27:51.581Z,19.07
2022-11-29T01:30:18.173Z,19.40
2022-11-29T01:32:44.727Z,20.20
2022-11-29T01:35:11.395Z,20.27
2022-11-29T01:37:37.934Z,20.60
2022-11-29T01:40:05.170Z,21.17
2022-11-29T01:42:31.732Z,19.90
2022-11-29T01:45:04.216Z,20.97
2022-11-29T01:47:31.413Z,21.10
2022-11-29T01:49:58.811Z,20.73
2022-11-29T01:52:32.197Z,21.10
2022-11-29T01:55:03.051Z,19.33
2022-11-29T01:57:31.343Z,20.07
2022-11-29T02:00:04.240Z,21.17
2022-11-29T02:02:57.136Z,20.23
2022-11-29T02:05:25.617Z,19.97
2022-11-29T02:07:55.895Z,20.60
2022-11-29T02:10:40.435Z,20.53
2022-11-29T02:13:40.096Z,19.83
2022-11-29T02:16:17.575Z,20.37
2022-11-29T02:18:52.388Z,20.90
2022-11-29T02:21:30.327Z,20.93
2022-11-29T02:24:32.593Z,20.17
2022-11-29T02:27:40.807Z,20.53
2022-11-29T02:30:23.899Z,20.83
2022-11-29T02:33:26.168Z,20.30
2022-11-29T02:36:18.954Z,20.87
2022-11-29T02:39:24.326Z,20.70
2022-11-29T02:42:30.152Z,20.47
2022-11-29T02:45:37.685Z,20.53
2022-11-29T02:48:50.692Z,21.33
2022-11-29T02:51:30.802Z,20.60
2022-11-29T02:54:06.190Z,20.87
2022-11-29T02:56:38.977Z,21.27
2022-11-29T02:59:50.442Z,19.97
2022-11-29T03:02:24.954Z,21.93
2022-11-29T03:05:28.297Z,20.97
2022-11-29T03:08:16.445Z,20.90
2022-11-29T03:11:02.832Z,21.87
2022-11-29T03:13:55.625Z,20.70
2022-11-29T03:16:42.719Z,21.30
2022-11-29T03:19:31.879Z,21.90
2022-11-29T03:22:41.253Z,21.83
2022-11-29T03:25:24.253Z,21.30
2022-11-29T03:27:59.891Z,22.27
2022-11-29T03:30:27.436Z,20.73
2022-11-29T03:33:13.144Z,21.00
2022-11-29T03:35:53.451Z,21.03
2022-11-29T03:38:41.888Z,21.60
2022-11-29T03:41:28.163Z,21.47
2022-11-29T03:44:09.442Z,20.10
2022-11-29T03:46:56.299Z,21.23
2022-11-29T03:49:29.386Z,20.50
2022-11-29T03:52:28.792Z,21.83
2022-11-29T03:55:21.466Z,21.50
2022-11-29T03:58:16.212Z,20.83
2022-11-29T04:00:48.926Z,21.43
2022-11-29T04:03:39.515Z,22.20
2022-11-29T04:06:34.930Z,21.47
2022-11-29T04:09:29.227Z,21.17
2022-11-29T04:12:21.133Z,20.83
2022-11-29T04:15:22.897Z,22.40
2022-11-29T04:18:08.638Z,21.90
2022-11-29T04:21:13.457Z,21.87
2022-11-29T04:23:59.589Z,20.73
2022-11-29T04:27:14.347Z,21.07
2022-11-29T04:30:04.532Z,20.63
2022-11-29T04:32:59.433Z,20.47
2022-11-29T04:35:51.745Z,21.47
2022-11-29T04:39:00.027Z,21.87
2022-11-29T04:41:57.800Z,20.77
2022-11-29T04:44:44.703Z,21.50
2022-11-29T04:47:41.247Z,22.00
2022-11-29T04:50:27.002Z,21.37
2022-11-29T04:53:28.440Z,20.37
2022-11-29T04:56:22.375Z,20.57
2022-11-29T04:59:01.158Z,22.20
2022-11-29T05:01:52.864Z,21.30
2022-11-29T05:04:30.111Z,22.40
2022-11-29T05:07:21.614Z,21.60
2022-11-29T05:10:29.591Z,21.97
2022-11-29T05:13:12.997Z,21.40
2022-11-29T05:16:00.574Z,20.80
2022-11-29T05:18:49.461Z,21.27
2022-11-29T05:21:46.521Z,21.10
2022-11-29T05:24:56.595Z,21.10
2022-11-29T05:27:47.051Z,20.23
2022-11-29T05:30:20.063Z,21.20
2022-11-29T05:33:12.866Z,21.77
2022-11-29T05:35:54.615Z,20.13
2022-11-29T05:38:38.878Z,21.10
2022-11-29T05:41:42.905Z,21.43
2022-11-29T05:44:19.779Z,21.40
2022-11-29T05:46:55.865Z,21.43
2022-11-29T05:49:40.781Z,20.83
2022-11-29T05:52:29.603Z,20.17
2022-11-29T05:55:27.157Z,21.83
2022-11-29T05:58:09.923Z,21.83
2022-11-29T06:00:53.766Z,21.10
2022-11-29T06:03:40.542Z,20.33
2022-11-29T06:06:33.718Z,22.33
2022-11-29T06:09:24.629Z,21.83
2022-11-29T06:12:02.473Z,20.73
2022-11-29T06:14:57.022Z,21.70
2022-11-29T06:17:52.342Z,20.43
2022-11-29T06:20:40.723Z,21.30
2022-11-29T06:23:24.821Z,20.93
2022-11-29T06:26:13.160Z,20.07
2022-11-29T06:29:01.747Z,20.37
2022-11-29T06:31:43.332Z,21.13
2022-11-29T06:34:10.056Z,21.17
2022-11-29T06:36:54.818Z,20.60
2022-11-29T06:39:21.650Z,21.90
2022-11-29T06:41:48.843Z,20.67
2022-11-29T06:44:15.860Z,21.00
2022-11-29T06:46:54.856Z,21.50
2022-11-29T06:49:27.662Z,20.50
2022-11-29T06:52:32.142Z,21.20
2022-11-29T06:55:24.175Z,21.67
2022-11-29T06:58:06.899Z,20.77
2022-11-29T07:00:59.158Z,19.53
2022-11-29T07:03:47.797Z,21.23
2022-11-29T07:06:28.582Z,21.57
2022-11-29T07:09:14.441Z,20.50
2022-11-29T07:11:41.737Z,20.03
2022-11-29T07:14:09.824Z,20.73
2022-11-29T07:17:27.736Z,20.30
2022-11-29T07:20:03.502Z,20.73
2022-11-29T07:23:14.616Z,20.87
2022-11-29T07:26:15.290Z,20.37
2022-11-29T07:28:58.185Z,20.50
2022-11-29T07:31:46.760Z,21.33
2022-11-29T07:34:51.625Z,20.57
2022-11-29T07:37:45.640Z,20.77
2022-11-29T07:40:26.343Z,20.17
2022-11-29T07:43:19.751Z,20.53
2022-11-29T07:45:46.385Z,20.73
2022-11-29T07:48:13.491Z,20.40
2022-11-29T07:50:40.936Z,20.33
2022-11-29T07:53:09.335Z,21.03
2022-11-29T07:55:37.047Z,21.27
2022-11-29T07:58:03.666Z,19.60
2022-11-29T08:00:30.283Z,20.13
2022-11-29T08:02:56.835Z,20.33
2022-11-29T08:05:23.968Z,21.10
2022-11-29T08:07:50.629Z,19.83
2022-11-29T08:10:17.557Z,20.77
2022-11-29T08:12:46.621Z,20.73
2022-11-29T08:15:13.906Z,20.90
2022-11-29T08:17:41.300Z,20.97
2022-11-29T08:20:09.607Z,21.30
2022-11-29T08:22:36.256Z,22.57
2022-11-29T08:25:04.066Z,20.73
2022-11-29T08:27:31.156Z,20.27
2022-11-29T08:29:57.824Z,21.33
2022-11-29T08:32:24.907Z,21.10
2022-11-29T08:34:51.611Z,20.40
2022-11-29T08:37:18.204Z,20.97
2022-11-29T08:39:44.760Z,20.03
2022-11-29T08:42:11.410Z,20.40
2022-11-29T08:44:38.035Z,20.13
2022-11-29T08:47:34.226Z,20.37
2022-11-29T08:50:03.670Z,20.97
2022-11-29T08:52:50.979Z,19.63
2022-11-29T08:55:19.899Z,20.67
2022-11-29T08:57:47.708Z,21.13
2022-11-29T09:00:15.180Z,19.87
2022-11-29T09:02:41.905Z,20.73
2022-11-29T09:05:10.194Z,21.03
2022-11-29T09:07:37.184Z,20.50
2022-11-29T09:10:08.065Z,19.23
2022-11-29T09:12:36.317Z,21.07
2022-11-29T09:15:06.153Z,20.60
2022-11-29T09:17:32.954Z,22.40
2022-11-29T09:19:59.502Z,20.83
2022-11-29T09:22:26.117Z,20.63
2022-11-29T09:24:52.738Z,21.03
2022-11-29T09:27:19.277Z,19.60
2022-11-29T09:29:45.968Z,20.63
2022-11-29T09:32:12.601Z,21.00
2022-11-29T09:34:39.202Z,20.20
2022-11-29T09:37:05.781Z,21.17
2022-11-29T09:39:32.433Z,20.63
2022-11-29T09:42:36.532Z,19.60
2022-11-29T09:45:13.805Z,21.80
2022-11-29T09:48:21.915Z,20.43
2022-11-29T09:50:57.007Z,20.07
2022-11-29T09:54:02.561Z,20.27
2022-11-29T09:56:38.813Z,20.70
2022-11-29T09:59:12.287Z,20.07
2022-11-29T10:01:43.167Z,21.03
2022-11-29T10:04:16.775Z,19.83
2022-11-29T10:06:50.289Z,20.00
2022-11-29T10:09:32.327Z,20.57
2022-11-29T10:12:13.161Z,21.77
2022-11-29T10:14:52.462Z,19.90
2022-11-29T10:17:24.716Z,20.13
2022-11-29T10:19:56.085Z,21.03
2022-11-29T10:22:40.820Z,20.93
2022-11-29T10:25:10.389Z,21.20
2022-11-29T10:27:40.273Z,20.23
2022-11-29T10:30:14.290Z,19.70
2022-11-29T10:32:43.803Z,21.20
2022-11-29T10:35:17.663Z,21.33
2022-11-29T10:38:01.552Z,20.87
2022-11-29T10:40:34.861Z,21.87
2022-11-29T10:43:02.170Z,20.73
2022-11-29T10:45:35.031Z,21.30
2022-11-29T10:48:17.588Z,21.03
2022-11-29T10:50:46.811Z,21.53
2022-11-29T10:53:19.633Z,20.23
2022-11-29T10:55:48.910Z,21.53
2022-11-29T10:58:24.729Z,20.83
2022-11-29T11:00:55.632Z,21.17
2022-11-29T11:03:39.264Z,20.60
2022-11-29T11:06:17.050Z,22.07
2022-11-29T11:08:52.394Z,20.97
2022-11-29T11:11:32.905Z,23.10
2022-11-29T11:14:19.342Z,21.87
2022-11-29T11:16:45.913Z,21.57
2022-11-29T11:19:30.258Z,21.97
2022-11-29T11:21:59.275Z,20.30
2022-11-29T11:24:29.986Z,21.20
2022-11-29T11:26:57.409Z,21.17
2022-11-29T11:29:26.991Z,22.00
2022-11-29T11:31:56.607Z,21.43
2022-11-29T11:34:34.191Z,21.63
2022-11-29T11:37:16.348Z,21.97
2022-11-29T11:39:44.506Z,20.77
2022-11-29T11:42:36.135Z,22.90
2022-11-29T11:45:25.972Z,22.87
2022-11-29T11:47:55.363Z,21.37
2022-11-29T11:50:41.981Z,23.17
2022-11-29T11:53:30.542Z,22.67
2022-11-29T11:56:03.964Z,22.57
2022-11-29T11:58:45.299Z,20.77
2022-11-29T12:01:11.783Z,23.27
2022-11-29T12:03:54.613Z,21.77
2022-11-29T12:06:42.462Z,23.60
2022-11-29T12:09:09.760Z,22.60
2022-11-29T12:12:04.137Z,22.83
2022-11-29T12:14:47.334Z,23.43
2022-11-29T12:17:36.411Z,23.50
2022-11-29T12:20:24.456Z,23.67
2022-11-29T12:23:05.054Z,22.53
2022-11-29T12:25:42.804Z,23.47
2022-11-29T12:28:20.021Z,23.83
2022-11-29T12:31:17.999Z,23.37
2022-11-29T12:34:05.191Z,23.47
2022-11-29T12:36:50.424Z,23.80
2022-11-29T12:39:46.214Z,24.07
2022-11-29T12:42:40.813Z,24.30
2022-11-29T12:45:37.524Z,23.63
2022-11-29T12:48:10.108Z,23.73
2022-11-29T12:50:57.765Z,23.50
2022-11-29T12:53:36.731Z,23.20
2022-11-29T12:56:27.724Z,24.07
2022-11-29T12:59:09.400Z,25.83
2022-11-29T13:02:00.602Z,25.07
2022-11-29T13:04:47.708Z,23.90
2022-11-29T13:07:39.825Z,24.90
2022-11-29T13:10:28.469Z,23.93
2022-11-29T13:13:18.971Z,23.93
2022-11-29T13:15:56.546Z,23.87
2022-11-29T13:18:33.625Z,25.33
2022-11-29T13:21:07.520Z,24.93
2022-11-29T13:24:07.864Z,25.10
2022-11-29T13:26:33.774Z,23.93
2022-11-29T13:29:02.014Z,24.13
2022-11-29T13:31:29.866Z,23.73
2022-11-29T13:34:08.063Z,23.63
2022-11-29T13:36:53.289Z,24.50
2022-11-29T13:39:55.274Z,25.00
2022-11-29T13:42:45.000Z,25.13
2022-11-29T13:45:42.091Z,25.17
2022-11-29T13:48:51.729Z,26.33
2022-11-29T13:51:32.361Z,29.07
2022-11-29T13:54:05.795Z,32.93
2022-11-29T13:56:46.465Z,25.70
2022-11-29T13:59:24.190Z,27.43
2022-11-29T14:01:53.444Z,25.50
2022-11-29T14:04:37.506Z,24.37
2022-11-29T14:07:11.219Z,25.30
2022-11-29T14:10:02.167Z,26.00
2022-11-29T14:12:48.611Z,24.43
2022-11-29T14:15:28.201Z,24.67
2022-11-29T14:18:08.097Z,24.70
2022-11-29T14:20:43.887Z,24.37
2022-11-29T14:23:15.967Z,25.10
2022-11-29T14:25:58.379Z,25.20
2022-11-29T14:28:24.862Z,25.87
2022-11-29T14:30:57.048Z,24.50
2022-11-29T14:33:50.831Z,25.33
2022-11-29T14:36:29.591Z,25.07
2022-11-29T14:39:18.737Z,23.33
2022-11-29T14:42:01.248Z,24.73
2022-11-29T14:44:30.784Z,25.03
2022-11-29T14:47:06.628Z,24.27
2022-11-29T14:49:44.548Z,24.77
2022-11-29T14:52:13.841Z,24.10
2022-11-29T14:55:09.391Z,25.30
2022-11-29T14:57:47.901Z,22.70
2022-11-29T15:00:26.470Z,23.80
2022-11-29T15:03:12.847Z,22.93
2022-11-29T15:06:00.354Z,24.90
2022-11-29T15:08:26.881Z,23.20
2022-11-29T15:11:02.956Z,23.20
2022-11-29T15:13:31.899Z,21.20
2022-11-29T15:16:17.186Z,23.40
2022-11-29T15:19:13.141Z,23.20
2022-11-29T15:21:56.037Z,22.97
2022-11-29T15:24:28.354Z,22.57
2022-11-29T15:27:00.394Z,23.47
2022-11-29T15:29:29.037Z,23.30
2022-11-29T15:32:03.524Z,23.43
2022-11-29T15:34:32.243Z,22.90
2022-11-29T15:37:00.088Z,24.07
2022-11-29T15:39:33.068Z,24.67
2022-11-29T15:42:00.990Z,23.53
2022-11-29T15:44:27.700Z,22.67
2022-11-29T15:46:54.277Z,23.60
2022-11-29T15:49:26.515Z,23.93
2022-11-29T15:52:01.268Z,23.70
2022-11-29T15:54:41.059Z,24.00
2022-11-29T15:57:34.177Z,23.87
2022-11-29T16:00:04.075Z,24.87
2022-11-29T16:02:33.693Z,25.93
2022-11-29T16:05:09.650Z,24.83
2022-11-29T16:07:38.665Z,26.43
2022-11-29T16:10:14.133Z,28.27
2022-11-29T16:12:55.028Z,28.60
2022-11-29T16:15:33.703Z,26.83
2022-11-29T16:18:12.579Z,26.97
2022-11-29T16:20:39.940Z,26.10
2022-11-29T16:23:13.783Z,24.93
2022-11-29T16:25:59.861Z,26.40
2022-11-29T16:28:33.631Z,25.20
2022-11-29T16:31:00.600Z,26.20
2022-11-29T16:33:27.682Z,26.23
2022-11-29T16:36:15.823Z,25.80
2022-11-29T16:38:47.290Z,25.50
2022-11-29T16:41:31.080Z,26.37
2022-11-29T16:43:58.236Z,27.60
2022-11-29T16:46:27.823Z,26.83
2022-11-29T16:48:56.748Z,27.93
2022-11-29T16:51:39.618Z,27.07
2022-11-29T16:54:27.652Z,26.10
2022-11-29T16:56:56.757Z,26.37
2022-11-29T16:59:28.028Z,26.33
2022-11-29T17:01:56.520Z,26.57
2022-11-29T17:04:24.662Z,26.47
2022-11-29T17:06:54.000Z,26.37
2022-11-29T17:09:27.252Z,25.70
2022-11-29T17:11:54.910Z,26.03
2022-11-29T17:14:22.035Z,26.27
2022-11-29T17:16:49.615Z,27.83
2022-11-29T17:19:16.447Z,27.73
2022-11-29T17:21:43.045Z,26.93
2022-11-29T17:24:12.904Z,26.47
2022-11-29T17:26:40.957Z,27.00
2022-11-29T17:29:09.229Z,25.93
2022-11-29T17:31:36.199Z,27.47
2022-11-29T17:34:03.340Z,27.07
2022-11-29T17:36:30.596Z,26.40
2022-11-29T17:38:59.459Z,27.13
2022-11-29T17:41:27.543Z,27.17
2022-11-29T17:43:55.830Z,26.63
2022-11-29T17:46:28.230Z,26.47
2022-11-29T17:48:55.480Z,26.83
2022-11-29T17:51:50.548Z,28.43
2022-11-29T17:54:10.944Z,26.27
2022-11-29T17:56:37.887Z,26.40
2022-11-29T17:59:04.855Z,27.07
2022-11-29T18:01:34.017Z,27.03
2022-11-29T18:04:02.414Z,27.73
2022-11-29T18:06:37.936Z,27.40
2022-11-29T18:09:06.902Z,25.37
2022-11-29T18:11:43.330Z,26.90
2022-11-29T18:14:15.410Z,27.27
2022-11-29T18:16:42.867Z,27.47
2022-11-29T18:19:12.578Z,27.33
2022-11-29T18:21:39.133Z,28.67
2022-11-29T18:24:06.965Z,27.33
2022-11-29T18:26:34.994Z,26.40
2022-11-29T18:29:01.634Z,28.87
2022-11-29T18:31:31.125Z,29.53
2022-11-29T18:34:06.769Z,28.83
2022-11-29T18:36:36.835Z,28.30
2022-11-29T18:39:08.868Z,27.87
2022-11-29T18:41:36.191Z,27.93
2022-11-29T18:44:05.899Z,26.97
2022-11-29T18:46:35.465Z,28.17
2022-11-29T18:49:03.863Z,26.50
2022-11-29T18:51:31.416Z,28.07
2022-11-29T18:53:58.679Z,26.63
2022-11-29T18:56:27.543Z,27.27
2022-11-29T18:58:58.549Z,27.83
2022-11-29T19:01:27.494Z,28.53
2022-11-29T19:03:56.704Z,27.43
2022-11-29T19:06:30.812Z,28.57
2022-11-29T19:09:03.370Z,27.27
2022-11-29T19:11:32.067Z,28.30
2022-11-29T19:14:01.157Z,27.17
2022-11-29T19:16:29.726Z,28.97
2022-11-29T19:18:58.441Z,29.67
2022-11-29T19:21:27.176Z,28.73
2022-11-29T19:23:56.293Z,28.17
2022-11-29T19:26:25.989Z,28.63
2022-11-29T19:28:55.861Z,28.60
2022-11-29T19:31:25.011Z,29.47
2022-11-29T19:33:53.394Z,28.40
2022-11-29T19:36:28.558Z,29.23
2022-11-29T19:38:55.301Z,30.23
2022-11-29T19:41:36.515Z,28.37
2022-11-29T19:44:05.957Z,28.97
2022-11-29T19:46:38.208Z,29.50
2022-11-29T19:49:06.151Z,28.30
2022-11-29T19:51:33.821Z,28.67
2022-11-29T19:54:03.286Z,28.13
2022-11-29T19:56:30.965Z,28.77
2022-11-29T19:58:59.610Z,27.43
2022-11-29T20:01:36.053Z,27.67
2022-11-29T20:04:06.199Z,28.90
2022-11-29T20:06:32.760Z,28.30
2022-11-29T20:08:59.384Z,25.90
2022-11-29T20:11:26.516Z,26.03
2022-11-29T20:13:56.245Z,27.77
2022-11-29T20:16:24.010Z,29.03
2022-11-29T20:18:51.583Z,28.53
2022-11-29T20:21:24.129Z,26.70
2022-11-29T20:23:58.473Z,29.00
2022-11-29T20:26:29.631Z,27.20
2022-11-29T20:28:56.241Z,29.37
2022-11-29T20:31:23.553Z,27.87
2022-11-29T20:33:51.972Z,28.83
2022-11-29T20:36:48.877Z,27.43
2022-11-29T20:39:42.517Z,29.87
2022-11-29T20:42:27.890Z,28.17
2022-11-29T20:44:57.466Z,29.63
2022-11-29T20:47:33.073Z,29.37
2022-11-29T20:49:59.877Z,29.27
2022-11-29T20:52:41.805Z,28.93
2022-11-29T20:55:08.573Z,30.13
2022-11-29T20:57:38.130Z,27.97
2022-11-29T21:00:07.667Z,30.10
2022-11-29T21:02:34.319Z,29.20
2022-11-29T21:05:00.864Z,29.10
2022-11-29T21:07:27.616Z,29.53
2022-11-29T21:10:00.725Z,30.40
2022-11-29T21:12:29.075Z,28.77
2022-11-29T21:14:56.089Z,31.00
2022-11-29T21:17:22.922Z,30.13
2022-11-29T21:19:49.720Z,30.13
2022-11-29T21:22:21.505Z,30.57
2022-11-29T21:25:15.311Z,31.23
2022-11-29T21:27:42.218Z,30.50
2022-11-29T21:30:20.446Z,29.83
2022-11-29T21:32:47.496Z,31.07
2022-11-29T21:35:14.881Z,29.47
2022-11-29T21:37:42.177Z,30.70
2022-11-29T21:40:09.809Z,31.00
2022-11-29T21:42:36.743Z,31.33
2022-11-29T21:45:04.665Z,30.17
2022-11-29T21:47:31.974Z,29.10
2022-11-29T21:49:58.807Z,29.80
2022-11-29T21:52:25.411Z,31.03
2022-11-29T21:54:52.010Z,30.77
2022-11-29T21:57:18.531Z,30.67
2022-11-29T21:59:45.153Z,29.23
2022-11-29T22:02:11.875Z,30.27
2022-11-29T22:04:38.527Z,30.47
2022-11-29T22:07:05.165Z,30.97
2022-11-29T22:09:31.695Z,30.27
2022-11-29T22:11:58.921Z,31.27
2022-11-29T22:14:25.476Z,31.07
2022-11-29T22:16:56.984Z,33.67
2022-11-29T22:19:29.603Z,31.00
2022-11-29T22:21:58.825Z,31.23
2022-11-29T22:24:27.715Z,31.33
2022-11-29T22:26:54.865Z,30.90
2022-11-29T22:29:22.218Z,31.73
2022-11-29T22:31:53.917Z,31.17
2022-11-29T22:34:22.188Z,32.17
2022-11-29T22:36:49.070Z,30.83
2022-11-29T22:39:15.605Z,32.10
2022-11-29T22:41:42.387Z,31.07
2022-11-29T22:44:09.243Z,31.93
2022-11-29T22:46:38.455Z,31.13
2022-11-29T22:49:05.090Z,32.43
2022-11-29T22:51:36.946Z,31.40
2022-11-29T22:54:06.613Z,32.90
2022-11-29T22:56:35.631Z,30.73
2022-11-29T22:59:02.328Z,31.27
2022-11-29T23:01:30.561Z,33.07
2022-11-29T23:04:00.015Z,31.70
2022-11-29T23:06:32.799Z,30.73
2022-11-29T23:09:05.151Z,31.93
2022-11-29T23:11:31.757Z,31.37
2022-11-29T23:13:58.332Z,31.57
2022-11-29T23:16:27.499Z,31.80
2022-11-29T23:18:56.389Z,32.23
2022-11-29T23:21:26.147Z,31.27
2022-11-29T23:23:56.319Z,31.83
2022-11-29T23:26:26.930Z,30.70
2022-11-29T23:28:54.466Z,31.37
2022-11-29T23:31:21.939Z,31.67
2022-11-29T23:33:48.810Z,32.83
2022-11-29T23:36:16.255Z,31.67
2022-11-29T23:38:43.483Z,31.30
2022-11-29T23:41:11.477Z,30.73
2022-11-29T23:43:40.343Z,31.03
2022-11-29T23:46:08.805Z,30.73
2022-11-29T23:48:35.492Z,30.60
2022-11-29T23:51:02.025Z,31.27
2022-11-29T23:53:28.964Z,30.93
2022-11-29T23:56:06.321Z,31.93
2022-11-29T23:58:34.568Z,31.07
